GMTT/TNG METAR and TAF weather

Enter ICAO airport designator
Station Type Date Time Source
GMTT METAR 2018/01/17 06:30 UTC NOAA

GMTT 170630Z 11004KT 8000 NSC 05/03 Q1024 NOSIG


Station Type Date Time Source
GMTT Decoded METAR 2018/01/17 06:30 UTC NOAA

Tanger Aerodrome , Morocco (GMTT) 35-44N 005-54W 21M
Jan 17, 2018 - 01:30 AM EST / 2018.01.17 0630 UTC
Wind: from the ESE (110 degrees) at 5 MPH (4 KT):0
Visibility: 4 mile(s):0
Temperature: 41 F (5 C)
Dew Point: 37 F (3 C)
Relative Humidity: 86%
Pressure (altimeter): 30.24 in. Hg (1024 hPa)
ob: GMTT 170630Z 11004KT 8000 NSC 05/03 Q1024 NOSIG
cycle: 6

Station Type Date Time Source
GMTT TAF 2018/01/17 06:18 UTC NOAA

TAF TAF GMTT 170500Z 1706/1812 05003KT 8000 SCT016
BECMG 1714/1716 10014G24KT CAVOK


Example: see airport list